Terminal Aerodrome Forecast
Issued by NWS Grand Rapids, MI

Home | Current Version | Previous Version | Text Only | Print | Product List | Glossary On
Versions: 1 2 3 4 5 6 7 8 9 10 11 12 13 14 15 16 17 18 19 20 21 22 23 24 25 26 27 28
952
FTUS43 KGRR 230543
TAFGRR
TAF
KGRR 230543Z 2306/2406 20010KT 6SM BR SCT025
     FM230900 26011KT 3SM BR SCT025 OVC250
     FM231500 33008KT 6SM BR OVC100
     FM240100 04008KT 4SM BR OVC100
     FM240300 05009KT 4SM -RA BR OVC015=

USA.gov is the U.S. government's official web portal to all federal, state and local government web resources and services.